Latest Weather Observations for Wilcannia Airport

IDN60801

Issued at 3:32 am EDT Tuesday 24 January 2017 (issued every 30 minutes, with the page automatically refreshed every 10 minutes)

About weather observations | Map of weather stations | Latest weather observations for NSW | Other Formats
Station Details ID: 046012 Name: WILCANNIA AERODROME AWS Lat: -31.52 Lon: 143.38 Height: 94.3 m
Data from the previous 72 hours. | See also: Recent months at Wilcannia Airport
Date/Time
EDT
Temp
°C
App
Temp
°C
Dew
Point
°C
Rel
Hum
%
Delta-T
°C
Wind Press
QNH
hPa
Press
MSL
hPa
Rain since
9am
mm
Dir  Spd
km/h
Gust
km/h
Spd
kts
Gust
kts
24/03:30am 28.9 28.6 23.8 74 3.5 WSW 32 43 17 23 1007.8 1007.2 14.8
24/03:26am 29.2 29.5 23.6 72 3.9 WSW 28 43 15 23 1007.8 1007.2 14.8
24/03:00am 29.9 32.3 23.6 69 4.4 WNW 17 20 9 11 1007.1 1006.5 14.8
24/02:30am 30.3 32.0 23.0 65 5.0 NW 19 24 10 13 1006.9 1006.3 14.8
24/02:00am 30.5 32.0 22.7 63 5.4 NW 19 24 10 13 1006.8 1006.2 14.8
24/01:30am 31.0 31.5 22.6 61 5.8 NW 24 32 13 17 1006.8 1006.2 14.8
24/01:00am 31.6 31.9 22.3 57 6.4 NNW 24 33 13 18 1006.6 1006.0 14.8
24/12:30am 31.3 33.0 22.3 58 6.1 N 17 30 9 16 1006.7 1006.1 14.8
24/12:00am 30.4 33.7 23.8 68 4.6 N 13 17 7 9 1006.8 1006.2 14.8
 
Date/Time
EDT
Temp
°C
App
Temp
°C
Dew
Point
°C
Rel
Hum
%
Delta-T
°C
Wind Press
QNH
hPa
Press
MSL
hPa
Rain since
9am
mm
Dir  Spd
km/h
Gust
km/h
Spd
kts
Gust
kts
23/11:30pm 30.3 34.3 24.4 70 4.1 NNW 11 13 6 7 1006.7 1006.1 14.8
23/11:00pm 30.1 33.7 24.3 71 4.1 NW 13 17 7 9 1006.6 1006.0 14.8
23/10:30pm 30.0 34.0 25.1 75 3.5 NNW 13 15 7 8 1006.2 1005.6 14.8
23/10:00pm 30.0 34.3 24.9 74 3.6 NNW 11 15 6 8 1005.7 1005.1 14.8
23/09:30pm 29.3 34.1 25.7 81 2.6 N 11 13 6 7 1005.1 1004.5 14.8
23/09:00pm 29.2 35.7 26.8 87 1.7 NNW 6 9 3 5 1004.7 1004.1 14.8
23/08:30pm 28.8 34.3 26.8 89 1.4 NW 11 13 6 7 1004.5 1003.9 14.8
23/08:00pm 28.0 34.1 26.2 90 1.3 SE 6 9 3 5 1004.0 1003.4 14.8
23/07:30pm 26.5 30.7 25.3 93 0.8 SSW 13 19 7 10 1004.2 1003.6 14.8
23/07:08pm 25.0 24.2 23.4 91 1.1 WSW 33 65 18 35 1005.3 1004.7 14.6
23/07:05pm 25.1 21.1 22.8 87 1.6 WNW 48 146 26 79 1005.2 1004.6 13.8
23/07:01pm 24.2 19.6 20.9 82 2.2 NW 46 146 25 79 1006.0 1005.4 9.4
23/07:00pm 23.7 18.8 20.2 81 2.3 NW 46 146 25 79 1006.3 1005.7 8.4
23/06:59pm 23.9 18.8 20.6 82 2.2 NW 48 146 26 79 1006.7 1006.1 8.0
23/06:57pm 24.1 17.7 18.7 72 3.4 NW 50 146 27 79 1006.3 1005.7 5.4
23/06:56pm 26.8 21.1 17.3 56 6.0 NW 43 146 23 79 1005.1 1004.5 1.6
23/06:51pm 34.8 32.1 19.2 39 10.3 NNW 32 61 17 33 1004.5 1003.9 0.0
23/06:49pm 35.8 33.8 18.4 35 11.4 NNW 26 59 14 32 1004.3 1003.7 0.0
23/06:48pm 36.3 34.1 17.0 32 12.4 NNW 24 44 13 24 1004.1 1003.5 0.0
23/06:30pm 39.0 38.1 18.3 30 13.7 WNW 20 30 11 16 1002.8 1002.1 0.0
23/06:00pm 40.7 37.9 17.4 25 15.4 NW 28 43 15 23 1002.8 1002.1 0.0
23/05:30pm 41.4 40.6 16.1 23 16.4 NW 15 24 8 13 1002.6 1001.9 0.0
23/05:00pm 42.3 40.4 16.8 22 16.7 NW 22 37 12 20 1003.1 1002.5 0.0
23/04:30pm 42.4 39.9 16.2 21 17.0 NNW 24 39 13 21 1003.4 1002.8 0.0
23/04:00pm 42.4 39.3 15.5 21 17.4 WNW 26 41 14 22 1003.7 1003.1 0.0
23/03:30pm 42.5 38.4 14.8 20 17.7 NW 30 44 16 24 1004.2 1003.6 0.0
23/03:00pm 41.0 37.1 14.3 20 16.9 NW 28 43 15 23 1004.8 1004.2 0.0
23/02:30pm 41.2 37.3 14.5 21 16.9 NW 28 41 15 22 1005.0 1004.4 0.0
23/02:00pm 42.0 38.0 15.1 20 17.3 NW 30 43 16 23 1005.2 1004.6 0.0
23/01:30pm 41.1 38.3 14.4 21 16.9 NNW 22 35 12 19 1005.4 1004.8 0.0
23/01:00pm 41.5 38.8 15.5 22 16.7 NNW 24 39 13 21 1005.8 1005.2 0.0
23/12:30pm 40.4 36.9 14.6 22 16.3 NNW 26 39 14 21 1006.2 1005.6 0.0
23/12:00pm 40.3 37.7 13.8 21 16.6 NNW 20 37 11 20 1006.4 1005.8 0.0
23/11:30am 38.1 35.1 12.7 22 15.5 NNW 20 30 11 16 1006.6 1006.0 0.0
23/11:00am 37.7 34.8 12.3 22 15.4 NNW 19 32 10 17 1006.7 1006.1 0.0
23/10:30am 38.6 35.0 13.1 22 15.7 NNW 24 32 13 17 1006.6 1006.0 0.0
23/10:00am 37.0 34.5 12.4 23 14.9 N 17 24 9 13 1006.7 1006.1 0.0
23/09:30am 35.0 33.5 12.0 25 13.8 NE 11 19 6 10 1006.8 1006.2 0.0
23/09:00am 32.3 31.8 12.5 30 11.8 ENE 7 13 4 7 1006.6 1006.0 0.0
23/08:30am 29.8 30.8 13.1 36 9.9 CALM 0 0 0 0 1006.5 1005.9 0.0
23/08:00am 28.5 29.3 12.4 37 9.5 CALM 0 6 0 3 1006.1 1005.5 0.0
23/07:30am 25.6 26.0 14.7 51 6.5 N 6 7 3 4 1006.0 1005.4 0.0
23/07:00am 23.7 25.4 15.2 59 5.1 CALM 0 0 0 0 1005.9 1005.3 0.0
23/06:30am 24.0 23.6 14.1 54 5.8 NE 9 11 5 6 1005.8 1005.2 0.0
23/06:00am 24.5 23.7 14.0 52 6.2 NE 11 13 6 7 1005.6 1005.0 0.0
23/05:30am 24.5 23.5 14.6 54 5.9 NE 13 13 7 7 1005.2 1004.6 0.0
23/05:00am 24.8 24.1 15.4 56 5.7 ENE 13 15 7 8 1005.2 1004.6 0.0
23/04:30am 25.5 23.3 10.9 40 8.2 ENE 13 15 7 8 1005.3 1004.7 0.0
23/04:00am 24.8 23.2 11.4 43 7.6 ENE 11 13 6 7 1005.5 1004.9 0.0
23/03:30am 24.3 24.5 13.2 50 6.5 ENE 4 11 2 6 1005.6 1005.0 0.0
23/03:00am 23.9 25.6 15.1 58 5.3 CALM 0 0 0 0 1005.9 1005.3 0.0
23/02:30am 24.1 24.7 14.2 54 5.9 ENE 4 6 2 3 1006.4 1005.8 0.0
23/02:00am 24.5 24.2 12.8 48 6.8 ENE 6 7 3 4 1006.8 1006.2 0.0
23/01:30am 25.4 24.3 10.8 40 8.2 E 7 9 4 5 1007.0 1006.4 0.0
23/01:00am 26.0 23.8 9.4 35 9.2 ESE 11 13 6 7 1007.2 1006.6 0.0
23/12:30am 26.4 24.5 10.5 37 8.9 ESE 11 11 6 6 1007.3 1006.7 0.0
23/12:00am 26.8 24.6 9.2 33 9.7 ESE 11 13 6 7 1007.4 1006.8 0.0
 
Date/Time
EDT
Temp
°C
App
Temp
°C
Dew
Point
°C
Rel
Hum
%
Delta-T
°C
Wind Press
QNH
hPa
Press
MSL
hPa
Rain since
9am
mm
Dir  Spd
km/h
Gust
km/h
Spd
kts
Gust
kts
22/11:30pm 27.1 24.5 9.5 33 9.8 ESE 13 15 7 8 1007.5 1006.9 0.0
22/11:00pm 27.1 24.8 9.0 32 10.0 ESE 11 13 6 7 1007.3 1006.7 0.0
22/10:30pm 28.0 25.8 9.3 31 10.4 ESE 11 13 6 7 1007.3 1006.7 0.0
22/10:00pm 27.5 26.0 10.7 35 9.6 ESE 9 13 5 7 1007.3 1006.7 0.0
22/09:30pm 28.5 26.8 9.7 31 10.5 ENE 9 11 5 6 1007.2 1006.6 0.0
22/09:00pm 30.6 28.0 7.7 24 12.6 E 11 13 6 7 1007.2 1006.6 0.0
22/08:30pm 33.1 30.6 6.4 19 14.5 E 9 13 5 7 1006.9 1006.3 0.0
22/08:00pm 36.1 32.8 4.4 14 17.0 E 11 15 6 8 1006.9 1006.3 0.0
22/07:30pm 37.7 35.7 4.6 13 17.9 E 4 7 2 4 1006.7 1006.1 0.0
22/07:00pm 37.4 34.1 4.4 13 17.8 SE 11 17 6 9 1006.6 1006.0 0.0
22/06:30pm 38.1 35.6 4.9 13 18.1 W 7 13 4 7 1006.5 1005.9 0.0
22/06:00pm 38.3 35.5 5.0 13 18.2 WSW 9 20 5 11 1006.8 1006.2 0.0
22/05:30pm 37.8 34.9 4.7 13 18.0 WNW 9 15 5 8 1007.1 1006.5 0.0
22/05:00pm 37.5 34.8 5.5 14 17.6 NNE 9 19 5 10 1007.5 1006.9 0.0
22/04:30pm 38.0 34.4 4.8 13 18.1 NW 13 20 7 11 1007.9 1007.3 0.0
22/04:00pm 37.2 35.2 4.2 13 17.7 NNW 4 9 2 5 1008.3 1007.7 0.0
22/03:30pm 37.6 34.7 4.5 13 17.9 E 9 28 5 15 1008.6 1008.0 0.0
22/03:00pm 37.0 33.8 5.1 14 17.4 NNE 11 22 6 12 1009.0 1008.4 0.0
22/02:30pm 36.6 32.8 3.7 13 17.5 NNW 13 19 7 10 1009.4 1008.8 0.0
22/02:00pm 36.5 33.8 5.7 15 16.9 NNW 9 24 5 13 1009.6 1009.0 0.0
22/01:30pm 35.4 30.8 3.9 14 16.7 NE 17 30 9 16 1010.1 1009.5 0.0
22/01:00pm 35.0 31.1 3.5 14 16.5 NNW 13 30 7 16 1010.6 1010.0 0.0
22/12:30pm 33.9 30.1 3.7 15 15.8 NNE 13 24 7 13 1010.8 1010.2 0.0
22/12:00pm 34.3 30.9 5.8 17 15.5 E 13 20 7 11 1011.1 1010.5 0.0
22/11:30am 33.4 30.7 7.4 20 14.4 ENE 11 19 6 10 1011.3 1010.7 0.0
22/11:00am 31.8 28.1 6.1 20 13.8 E 15 24 8 13 1011.5 1010.9 0.0
22/10:30am 30.9 26.8 6.0 21 13.3 E 17 22 9 12 1011.5 1010.9 0.0
22/10:00am 29.3 25.4 7.2 25 11.9 ESE 17 22 9 12 1011.6 1011.0 0.0
22/09:30am 28.2 24.3 6.9 26 11.4 ESE 17 22 9 12 1011.7 1011.1 0.0
22/09:00am 26.1 22.3 7.7 31 9.9 ESE 17 22 9 12 1012.0 1011.4 0.0
22/08:30am 23.8 21.5 7.4 35 8.6 ESE 9 13 5 7 1012.1 1011.5 0.0
22/08:00am 21.4 18.8 7.6 41 7.2 SSE 11 15 6 8 1011.9 1011.3 0.0
22/07:30am 19.0 17.4 8.9 52 5.3 S 7 9 4 5 1011.6 1011.0 0.0
22/07:00am 16.5 14.6 9.0 61 3.9 S 9 9 5 5 1011.2 1010.6 0.0
22/06:30am 16.2 14.3 9.2 63 3.6 SSE 9 11 5 6 1010.8 1010.2 0.0
22/06:00am 17.7 15.1 7.7 52 5.1 SSE 11 15 6 8 1010.7 1010.1 0.0
22/05:30am 17.8 14.9 8.1 53 5.0 SSE 13 17 7 9 1010.4 1009.8 0.0
22/05:00am 17.3 14.5 8.7 57 4.5 SSE 13 13 7 7 1010.0 1009.4 0.0
22/04:30am 18.0 15.2 8.6 54 4.9 SSE 13 15 7 8 1010.0 1009.4 0.0
22/04:00am 18.3 15.6 8.8 54 5.0 S 13 15 7 8 1010.0 1009.4 0.0
22/03:30am 17.5 15.6 10.6 64 3.7 S 11 15 6 8 1010.3 1009.7 0.0
22/03:00am 18.0 16.3 11.3 65 3.7 S 11 13 6 7 1010.6 1010.0 0.0
22/02:30am 18.7 16.8 10.5 59 4.4 S 11 13 6 7 1011.0 1010.4 0.0
22/02:00am 19.2 17.4 10.7 58 4.6 S 11 13 6 7 1011.3 1010.7 0.0
22/01:30am 20.1 18.0 9.7 51 5.6 S 11 13 6 7 1011.4 1010.8 0.0
22/01:00am 20.3 18.4 10.4 53 5.4 SSE 11 13 6 7 1011.6 1011.0 0.0
22/12:30am 21.3 19.0 8.9 45 6.6 SSE 11 13 6 7 1011.5 1010.9 0.0
22/12:00am 21.7 19.0 8.9 44 6.8 SSE 13 13 7 7 1011.4 1010.8 0.0
 
Date/Time
EDT
Temp
°C
App
Temp
°C
Dew
Point
°C
Rel
Hum
%
Delta-T
°C
Wind Press
QNH
hPa
Press
MSL
hPa
Rain since
9am
mm
Dir  Spd
km/h
Gust
km/h
Spd
kts
Gust
kts
21/11:30pm 22.2 19.5 9.0 43 7.1 S 13 15 7 8 1011.3 1010.7 0.0
21/11:00pm 22.4 20.3 9.9 45 6.8 S 11 13 6 7 1011.3 1010.7 0.0
21/10:30pm 23.3 21.0 9.0 40 7.7 S 11 11 6 6 1011.1 1010.5 0.0
21/10:00pm 23.6 21.0 7.7 36 8.4 S 11 13 6 7 1010.7 1010.1 0.0
21/09:30pm 24.2 21.8 8.6 37 8.4 SSE 11 13 6 7 1010.3 1009.7 0.0
21/09:00pm 25.3 22.9 7.0 31 9.6 SSE 9 11 5 6 1010.1 1009.5 0.0
21/08:30pm 27.9 25.0 4.9 23 11.8 SE 9 15 5 8 1009.8 1009.2 0.0
21/08:00pm 30.2 25.2 1.6 16 14.1 SE 17 28 9 15 1009.6 1009.0 0.0
21/07:30pm 30.9 25.5 2.2 16 14.4 SE 20 30 11 16 1009.4 1008.8 0.0
21/07:00pm 31.7 26.9 2.8 16 14.7 SE 17 26 9 14 1009.4 1008.8 0.0
21/06:30pm 31.9 26.8 3.0 16 14.8 SSE 19 26 10 14 1009.2 1008.6 0.0
21/06:00pm 31.5 25.4 2.7 16 14.6 SSE 24 32 13 17 1009.2 1008.6 0.0
21/05:30pm 31.9 26.2 3.0 16 14.8 S 22 32 12 17 1009.4 1008.8 0.0
21/05:00pm 31.4 25.7 2.6 16 14.6 SSE 22 30 12 16 1009.7 1009.1 0.0
21/04:30pm 31.4 26.2 3.4 17 14.4 SSE 20 35 11 19 1009.9 1009.3 0.0
21/04:00pm 30.9 25.9 4.6 19 13.7 SSE 20 32 11 17 1010.3 1009.7 0.0
21/03:30pm 30.3 25.5 5.6 21 13.1 SE 20 37 11 20 1010.7 1010.1 0.0
21/03:00pm 30.2 25.7 6.1 22 12.8 SSE 19 30 10 16 1010.9 1010.3 0.0
21/02:30pm 29.1 25.1 8.2 27 11.5 SSE 19 28 10 15 1011.3 1010.7 0.0
21/02:00pm 28.3 23.9 7.5 27 11.2 S 20 28 11 15 1011.5 1010.9 0.0
21/01:30pm 27.5 23.7 8.9 31 10.2 S 19 26 10 14 1011.7 1011.1 0.0
21/01:00pm 27.0 23.7 9.4 33 9.7 S 17 28 9 15 1011.9 1011.3 0.0
21/12:30pm 25.8 21.6 9.6 36 8.9 SSE 22 32 12 17 1012.2 1011.7 0.0
21/12:00pm 25.3 22.1 11.1 41 8.0 SSE 19 28 10 15 1012.4 1011.9 0.0
21/11:30am 23.9 20.4 10.9 44 7.3 SSE 20 30 11 16 1012.6 1012.1 0.0
21/11:00am 24.1 21.1 12.4 48 6.7 SSE 20 30 11 16 1012.6 1012.1 0.0
21/10:30am 22.3 18.2 11.4 50 6.1 SSE 24 30 13 16 1012.6 1012.1 0.0
21/10:00am 21.8 18.7 11.5 52 5.8 SSE 19 28 10 15 1012.6 1012.1 0.0
21/09:30am 20.9 17.9 11.8 56 5.1 SSE 19 28 10 15 1012.4 1011.9 0.0
21/09:00am 20.4 17.1 11.6 57 4.9 SE 20 28 11 15 1012.3 1011.8 0.2
21/08:30am 19.7 16.4 11.5 59 4.5 SSE 20 30 11 16 1012.0 1011.4 0.2
21/08:00am 19.1 16.0 11.7 62 4.1 SSE 19 26 10 14 1011.6 1011.0 0.2
21/07:30am 17.6 17.1 12.5 72 2.8 S 7 13 4 7 1011.2 1010.6 0.2
21/07:00am 16.1 14.4 12.5 79 2.0 S 13 17 7 9 1010.6 1010.0 0.2
21/06:30am 15.8 14.0 12.2 79 2.0 S 13 15 7 8 1010.3 1009.7 0.2
21/06:00am 16.2 14.8 12.2 77 2.2 S 11 13 6 7 1009.9 1009.3 0.2
21/05:30am 17.0 15.3 12.3 74 2.6 S 13 17 7 9 1009.3 1008.7 0.2
21/05:00am 17.7 16.0 12.6 72 2.9 S 13 19 7 10 1009.0 1008.4 0.2
21/04:30am 18.4 16.4 12.8 70 3.2 S 15 22 8 12 1008.7 1008.1 0.2
21/04:00am 18.8 16.9 13.0 69 3.3 S 15 20 8 11 1008.6 1008.0 0.2

Other Formats:

Comma delimited format used in spreadsheet applications
http://www.bom.gov.au/fwo/IDN60801/IDN60801.95695.axf

JavaScript Object Notation format (JSON) in row-major order
http://www.bom.gov.au/fwo/IDN60801/IDN60801.95695.json